sensor_id;sensor_type;location;lat;lon;timestamp;P1;durP1;ratioP1;P2;durP2;ratioP2
12906;SDS011;6521;50.498;8.474;2023-11-21T00:01:54;10.37;;;7.47;;
12906;SDS011;6521;50.498;8.474;2023-11-21T00:04:25;10.23;;;8.63;;
12906;SDS011;6521;50.498;8.474;2023-11-21T00:06:58;10.73;;;8.50;;
12906;SDS011;6521;50.498;8.474;2023-11-21T00:09:29;11.23;;;8.90;;
12906;SDS011;6521;50.498;8.474;2023-11-21T00:12:00;11.70;;;9.23;;
12906;SDS011;6521;50.498;8.474;2023-11-21T00:14:31;13.53;;;8.97;;
12906;SDS011;6521;50.498;8.474;2023-11-21T00:17:01;11.60;;;8.90;;
12906;SDS011;6521;50.498;8.474;2023-11-21T00:19:32;13.60;;;9.17;;
12906;SDS011;6521;50.498;8.474;2023-11-21T00:22:03;13.13;;;10.00;;
12906;SDS011;6521;50.498;8.474;2023-11-21T00:24:34;14.57;;;9.77;;
12906;SDS011;6521;50.498;8.474;2023-11-21T00:27:05;15.07;;;10.77;;
12906;SDS011;6521;50.498;8.474;2023-11-21T00:29:36;21.13;;;11.00;;
12906;SDS011;6521;50.498;8.474;2023-11-21T00:32:07;18.17;;;11.37;;
12906;SDS011;6521;50.498;8.474;2023-11-21T00:34:38;13.67;;;10.33;;
12906;SDS011;6521;50.498;8.474;2023-11-21T00:37:08;20.50;;;11.13;;
12906;SDS011;6521;50.498;8.474;2023-11-21T00:39:39;18.77;;;12.60;;
12906;SDS011;6521;50.498;8.474;2023-11-21T00:42:10;18.43;;;11.20;;
12906;SDS011;6521;50.498;8.474;2023-11-21T00:44:41;23.70;;;12.10;;
12906;SDS011;6521;50.498;8.474;2023-11-21T00:47:13;15.03;;;10.90;;
12906;SDS011;6521;50.498;8.474;2023-11-21T00:49:44;18.23;;;12.60;;
12906;SDS011;6521;50.498;8.474;2023-11-21T00:52:15;18.47;;;12.00;;
12906;SDS011;6521;50.498;8.474;2023-11-21T00:54:46;21.57;;;13.40;;
12906;SDS011;6521;50.498;8.474;2023-11-21T00:57:18;21.17;;;13.83;;
12906;SDS011;6521;50.498;8.474;2023-11-21T00:59:49;19.17;;;13.23;;
12906;SDS011;6521;50.498;8.474;2023-11-21T01:02:20;20.57;;;11.83;;
12906;SDS011;6521;50.498;8.474;2023-11-21T01:04:51;21.17;;;13.00;;
12906;SDS011;6521;50.498;8.474;2023-11-21T01:07:22;18.03;;;11.97;;
12906;SDS011;6521;50.498;8.474;2023-11-21T01:09:53;17.93;;;10.87;;
12906;SDS011;6521;50.498;8.474;2023-11-21T01:12:23;13.47;;;9.37;;
12906;SDS011;6521;50.498;8.474;2023-11-21T01:14:55;9.57;;;7.83;;
12906;SDS011;6521;50.498;8.474;2023-11-21T01:17:26;9.63;;;7.27;;
12906;SDS011;6521;50.498;8.474;2023-11-21T01:19:57;6.57;;;5.03;;
12906;SDS011;6521;50.498;8.474;2023-11-21T01:22:28;5.07;;;4.00;;
12906;SDS011;6521;50.498;8.474;2023-11-21T01:24:59;5.63;;;4.40;;
12906;SDS011;6521;50.498;8.474;2023-11-21T01:27:30;5.10;;;3.90;;
12906;SDS011;6521;50.498;8.474;2023-11-21T01:30:01;5.17;;;3.97;;
12906;SDS011;6521;50.498;8.474;2023-11-21T01:32:33;4.53;;;3.97;;
12906;SDS011;6521;50.498;8.474;2023-11-21T01:35:04;5.80;;;4.27;;
12906;SDS011;6521;50.498;8.474;2023-11-21T01:37:37;5.00;;;3.83;;
12906;SDS011;6521;50.498;8.474;2023-11-21T01:40:08;5.93;;;4.00;;
12906;SDS011;6521;50.498;8.474;2023-11-21T01:42:44;5.23;;;3.67;;
12906;SDS011;6521;50.498;8.474;2023-11-21T01:45:15;2.97;;;2.70;;
12906;SDS011;6521;50.498;8.474;2023-11-21T01:47:46;2.83;;;2.50;;
12906;SDS011;6521;50.498;8.474;2023-11-21T01:50:17;3.37;;;2.50;;
12906;SDS011;6521;50.498;8.474;2023-11-21T01:52:48;2.73;;;2.50;;
12906;SDS011;6521;50.498;8.474;2023-11-21T01:55:20;3.77;;;2.60;;
12906;SDS011;6521;50.498;8.474;2023-11-21T01:57:51;2.50;;;2.30;;
12906;SDS011;6521;50.498;8.474;2023-11-21T02:00:22;2.87;;;2.53;;
12906;SDS011;6521;50.498;8.474;2023-11-21T02:02:54;3.10;;;2.80;;
12906;SDS011;6521;50.498;8.474;2023-11-21T02:05:25;2.83;;;2.53;;
12906;SDS011;6521;50.498;8.474;2023-11-21T02:07:56;4.17;;;3.03;;
12906;SDS011;6521;50.498;8.474;2023-11-21T02:10:27;3.83;;;3.40;;
12906;SDS011;6521;50.498;8.474;2023-11-21T02:12:57;3.87;;;3.30;;
12906;SDS011;6521;50.498;8.474;2023-11-21T02:15:28;4.40;;;3.67;;
12906;SDS011;6521;50.498;8.474;2023-11-21T02:17:59;4.37;;;3.97;;
12906;SDS011;6521;50.498;8.474;2023-11-21T02:20:32;4.57;;;4.17;;
12906;SDS011;6521;50.498;8.474;2023-11-21T02:23:05;5.30;;;4.10;;
12906;SDS011;6521;50.498;8.474;2023-11-21T02:25:35;5.23;;;3.50;;
12906;SDS011;6521;50.498;8.474;2023-11-21T02:28:07;8.13;;;3.30;;
12906;SDS011;6521;50.498;8.474;2023-11-21T02:30:38;7.70;;;5.73;;
12906;SDS011;6521;50.498;8.474;2023-11-21T02:33:09;10.73;;;6.23;;
12906;SDS011;6521;50.498;8.474;2023-11-21T02:35:39;10.77;;;7.43;;
12906;SDS011;6521;50.498;8.474;2023-11-21T02:38:10;23.53;;;8.00;;
12906;SDS011;6521;50.498;8.474;2023-11-21T02:40:41;18.63;;;8.67;;
12906;SDS011;6521;50.498;8.474;2023-11-21T02:43:14;32.63;;;10.83;;
12906;SDS011;6521;50.498;8.474;2023-11-21T02:45:45;32.50;;;10.47;;
12906;SDS011;6521;50.498;8.474;2023-11-21T02:48:16;22.33;;;9.67;;
12906;SDS011;6521;50.498;8.474;2023-11-21T02:50:47;20.50;;;10.97;;
12906;SDS011;6521;50.498;8.474;2023-11-21T02:53:18;14.77;;;10.20;;
12906;SDS011;6521;50.498;8.474;2023-11-21T02:55:49;14.57;;;9.93;;
12906;SDS011;6521;50.498;8.474;2023-11-21T02:58:19;17.90;;;10.27;;
12906;SDS011;6521;50.498;8.474;2023-11-21T03:00:50;13.90;;;8.77;;
12906;SDS011;6521;50.498;8.474;2023-11-21T03:03:22;17.67;;;10.77;;
12906;SDS011;6521;50.498;8.474;2023-11-21T03:05:55;16.40;;;9.90;;
12906;SDS011;6521;50.498;8.474;2023-11-21T03:08:25;15.57;;;9.77;;
12906;SDS011;6521;50.498;8.474;2023-11-21T03:10:56;15.27;;;10.10;;
12906;SDS011;6521;50.498;8.474;2023-11-21T03:13:27;16.37;;;9.70;;
12906;SDS011;6521;50.498;8.474;2023-11-21T03:15:58;15.40;;;7.97;;
12906;SDS011;6521;50.498;8.474;2023-11-21T03:18:29;12.50;;;8.63;;
12906;SDS011;6521;50.498;8.474;2023-11-21T03:21:00;11.90;;;8.53;;
12906;SDS011;6521;50.498;8.474;2023-11-21T03:23:31;12.17;;;8.07;;
12906;SDS011;6521;50.498;8.474;2023-11-21T03:26:02;12.13;;;8.60;;
12906;SDS011;6521;50.498;8.474;2023-11-21T03:28:34;10.77;;;8.93;;
12906;SDS011;6521;50.498;8.474;2023-11-21T03:31:05;12.70;;;7.93;;
12906;SDS011;6521;50.498;8.474;2023-11-21T03:33:36;14.80;;;7.47;;
12906;SDS011;6521;50.498;8.474;2023-11-21T03:36:07;13.83;;;7.80;;
12906;SDS011;6521;50.498;8.474;2023-11-21T03:38:38;15.93;;;6.43;;
12906;SDS011;6521;50.498;8.474;2023-11-21T03:41:09;14.00;;;7.30;;
12906;SDS011;6521;50.498;8.474;2023-11-21T03:43:40;10.40;;;6.87;;
12906;SDS011;6521;50.498;8.474;2023-11-21T03:46:11;15.93;;;6.93;;
12906;SDS011;6521;50.498;8.474;2023-11-21T03:48:42;13.10;;;6.80;;
12906;SDS011;6521;50.498;8.474;2023-11-21T03:51:13;12.23;;;6.60;;
12906;SDS011;6521;50.498;8.474;2023-11-21T03:53:43;8.47;;;5.80;;
12906;SDS011;6521;50.498;8.474;2023-11-21T03:56:14;9.10;;;6.00;;
12906;SDS011;6521;50.498;8.474;2023-11-21T03:58:45;8.20;;;6.90;;
12906;SDS011;6521;50.498;8.474;2023-11-21T04:01:21;9.33;;;5.93;;
12906;SDS011;6521;50.498;8.474;2023-11-21T04:03:53;8.97;;;6.10;;
12906;SDS011;6521;50.498;8.474;2023-11-21T04:06:23;7.50;;;6.53;;
12906;SDS011;6521;50.498;8.474;2023-11-21T04:08:54;9.50;;;7.00;;
12906;SDS011;6521;50.498;8.474;2023-11-21T04:11:25;10.40;;;7.27;;
12906;SDS011;6521;50.498;8.474;2023-11-21T04:13:56;9.40;;;6.77;;
12906;SDS011;6521;50.498;8.474;2023-11-21T04:16:26;10.37;;;6.90;;
12906;SDS011;6521;50.498;8.474;2023-11-21T04:18:57;14.13;;;7.63;;
12906;SDS011;6521;50.498;8.474;2023-11-21T04:21:28;12.03;;;8.33;;
12906;SDS011;6521;50.498;8.474;2023-11-21T04:23:59;10.73;;;8.03;;
12906;SDS011;6521;50.498;8.474;2023-11-21T04:26:29;10.97;;;7.47;;
12906;SDS011;6521;50.498;8.474;2023-11-21T04:29:00;8.17;;;7.10;;
12906;SDS011;6521;50.498;8.474;2023-11-21T04:31:31;15.10;;;7.77;;
12906;SDS011;6521;50.498;8.474;2023-11-21T04:34:02;8.80;;;7.17;;
12906;SDS011;6521;50.498;8.474;2023-11-21T04:36:34;9.33;;;7.30;;
12906;SDS011;6521;50.498;8.474;2023-11-21T04:39:13;9.20;;;6.67;;
12906;SDS011;6521;50.498;8.474;2023-11-21T04:41:44;13.60;;;6.20;;
12906;SDS011;6521;50.498;8.474;2023-11-21T04:44:14;8.97;;;5.83;;
12906;SDS011;6521;50.498;8.474;2023-11-21T04:46:46;11.40;;;5.90;;
12906;SDS011;6521;50.498;8.474;2023-11-21T04:49:17;7.00;;;5.50;;
12906;SDS011;6521;50.498;8.474;2023-11-21T04:51:48;7.77;;;5.93;;
12906;SDS011;6521;50.498;8.474;2023-11-21T04:54:18;5.90;;;5.30;;
12906;SDS011;6521;50.498;8.474;2023-11-21T04:56:49;6.10;;;5.13;;
12906;SDS011;6521;50.498;8.474;2023-11-21T04:59:19;7.50;;;5.73;;
12906;SDS011;6521;50.498;8.474;2023-11-21T05:01:50;6.00;;;5.00;;
12906;SDS011;6521;50.498;8.474;2023-11-21T05:04:21;6.60;;;5.80;;
12906;SDS011;6521;50.498;8.474;2023-11-21T05:06:52;8.23;;;6.33;;
12906;SDS011;6521;50.498;8.474;2023-11-21T05:09:23;10.67;;;6.47;;
12906;SDS011;6521;50.498;8.474;2023-11-21T05:11:54;8.27;;;6.17;;
12906;SDS011;6521;50.498;8.474;2023-11-21T05:14:25;7.40;;;6.17;;
12906;SDS011;6521;50.498;8.474;2023-11-21T05:16:55;9.40;;;6.43;;
12906;SDS011;6521;50.498;8.474;2023-11-21T05:19:26;9.43;;;6.57;;
12906;SDS011;6521;50.498;8.474;2023-11-21T05:21:57;9.37;;;6.57;;
12906;SDS011;6521;50.498;8.474;2023-11-21T05:24:29;11.23;;;6.77;;
12906;SDS011;6521;50.498;8.474;2023-11-21T05:27:00;7.97;;;6.47;;
12906;SDS011;6521;50.498;8.474;2023-11-21T05:29:30;9.37;;;6.57;;
12906;SDS011;6521;50.498;8.474;2023-11-21T05:32:02;11.03;;;6.53;;
12906;SDS011;6521;50.498;8.474;2023-11-21T05:34:33;11.97;;;7.63;;
12906;SDS011;6521;50.498;8.474;2023-11-21T05:37:04;9.20;;;7.03;;
12906;SDS011;6521;50.498;8.474;2023-11-21T05:39:35;9.63;;;6.87;;
12906;SDS011;6521;50.498;8.474;2023-11-21T05:42:06;9.57;;;6.93;;
12906;SDS011;6521;50.498;8.474;2023-11-21T05:44:40;12.17;;;7.27;;
12906;SDS011;6521;50.498;8.474;2023-11-21T05:47:12;9.47;;;7.07;;
12906;SDS011;6521;50.498;8.474;2023-11-21T05:49:44;10.27;;;7.10;;
12906;SDS011;6521;50.498;8.474;2023-11-21T05:52:15;12.77;;;7.80;;
12906;SDS011;6521;50.498;8.474;2023-11-21T05:54:46;13.80;;;7.97;;
12906;SDS011;6521;50.498;8.474;2023-11-21T05:57:17;11.83;;;7.53;;
12906;SDS011;6521;50.498;8.474;2023-11-21T05:59:48;10.50;;;7.30;;
12906;SDS011;6521;50.498;8.474;2023-11-21T06:02:19;12.50;;;7.77;;
12906;SDS011;6521;50.498;8.474;2023-11-21T06:04:49;10.00;;;6.90;;
12906;SDS011;6521;50.498;8.474;2023-11-21T06:07:20;9.90;;;7.00;;
12906;SDS011;6521;50.498;8.474;2023-11-21T06:09:51;13.90;;;6.97;;
12906;SDS011;6521;50.498;8.474;2023-11-21T06:12:21;10.83;;;6.83;;
12906;SDS011;6521;50.498;8.474;2023-11-21T06:14:52;12.83;;;7.17;;
12906;SDS011;6521;50.498;8.474;2023-11-21T06:17:23;17.93;;;7.87;;
12906;SDS011;6521;50.498;8.474;2023-11-21T06:19:55;12.73;;;8.00;;
12906;SDS011;6521;50.498;8.474;2023-11-21T06:22:25;13.00;;;6.97;;
12906;SDS011;6521;50.498;8.474;2023-11-21T06:24:56;11.70;;;6.83;;
12906;SDS011;6521;50.498;8.474;2023-11-21T06:27:27;10.07;;;7.17;;
12906;SDS011;6521;50.498;8.474;2023-11-21T06:29:58;13.43;;;7.13;;
12906;SDS011;6521;50.498;8.474;2023-11-21T06:32:29;18.57;;;6.97;;
12906;SDS011;6521;50.498;8.474;2023-11-21T06:35:00;33.27;;;8.20;;
12906;SDS011;6521;50.498;8.474;2023-11-21T06:37:30;27.27;;;6.70;;
12906;SDS011;6521;50.498;8.474;2023-11-21T06:40:02;83.47;;;10.13;;
12906;SDS011;6521;50.498;8.474;2023-11-21T06:42:34;39.30;;;8.70;;
12906;SDS011;6521;50.498;8.474;2023-11-21T06:45:05;39.07;;;7.70;;
12906;SDS011;6521;50.498;8.474;2023-11-21T06:47:36;42.37;;;8.70;;
12906;SDS011;6521;50.498;8.474;2023-11-21T06:50:08;24.07;;;6.73;;
12906;SDS011;6521;50.498;8.474;2023-11-21T06:52:39;25.43;;;7.20;;
12906;SDS011;6521;50.498;8.474;2023-11-21T06:55:10;22.57;;;7.67;;
12906;SDS011;6521;50.498;8.474;2023-11-21T06:57:41;15.57;;;6.07;;
12906;SDS011;6521;50.498;8.474;2023-11-21T07:00:12;12.10;;;5.70;;
12906;SDS011;6521;50.498;8.474;2023-11-21T07:02:43;14.17;;;6.50;;
12906;SDS011;6521;50.498;8.474;2023-11-21T07:05:14;11.00;;;6.70;;
12906;SDS011;6521;50.498;8.474;2023-11-21T07:07:45;16.93;;;6.73;;
12906;SDS011;6521;50.498;8.474;2023-11-21T07:10:16;13.33;;;6.53;;
12906;SDS011;6521;50.498;8.474;2023-11-21T07:12:47;25.10;;;6.73;;
12906;SDS011;6521;50.498;8.474;2023-11-21T07:15:18;12.33;;;6.67;;
12906;SDS011;6521;50.498;8.474;2023-11-21T07:17:49;18.77;;;7.23;;
12906;SDS011;6521;50.498;8.474;2023-11-21T07:20:20;14.93;;;6.27;;
12906;SDS011;6521;50.498;8.474;2023-11-21T07:22:51;15.10;;;6.70;;
12906;SDS011;6521;50.498;8.474;2023-11-21T07:25:22;16.20;;;7.60;;
12906;SDS011;6521;50.498;8.474;2023-11-21T07:27:53;11.80;;;7.57;;
12906;SDS011;6521;50.498;8.474;2023-11-21T07:30:25;15.20;;;7.80;;
12906;SDS011;6521;50.498;8.474;2023-11-21T07:32:56;10.87;;;7.07;;
12906;SDS011;6521;50.498;8.474;2023-11-21T07:35:26;11.07;;;7.00;;
12906;SDS011;6521;50.498;8.474;2023-11-21T07:37:57;10.13;;;6.70;;
12906;SDS011;6521;50.498;8.474;2023-11-21T07:40:28;16.00;;;8.07;;
12906;SDS011;6521;50.498;8.474;2023-11-21T07:42:59;7.77;;;6.43;;
12906;SDS011;6521;50.498;8.474;2023-11-21T07:45:30;10.43;;;6.50;;
12906;SDS011;6521;50.498;8.474;2023-11-21T07:48:00;21.07;;;7.23;;
12906;SDS011;6521;50.498;8.474;2023-11-21T07:50:33;21.33;;;6.87;;
12906;SDS011;6521;50.498;8.474;2023-11-21T07:53:04;21.30;;;6.77;;
12906;SDS011;6521;50.498;8.474;2023-11-21T07:55:35;9.13;;;6.30;;
12906;SDS011;6521;50.498;8.474;2023-11-21T07:58:06;18.30;;;7.10;;
12906;SDS011;6521;50.498;8.474;2023-11-21T08:00:37;15.53;;;6.20;;
12906;SDS011;6521;50.498;8.474;2023-11-21T08:03:09;20.07;;;7.20;;
12906;SDS011;6521;50.498;8.474;2023-11-21T08:05:42;25.10;;;9.17;;
12906;SDS011;6521;50.498;8.474;2023-11-21T08:08:13;108.27;;;13.33;;
12906;SDS011;6521;50.498;8.474;2023-11-21T08:10:44;46.83;;;10.27;;
12906;SDS011;6521;50.498;8.474;2023-11-21T08:13:26;14.83;;;8.67;;
12906;SDS011;6521;50.498;8.474;2023-11-21T08:15:58;12.73;;;8.50;;
12906;SDS011;6521;50.498;8.474;2023-11-21T08:18:33;32.67;;;9.43;;
12906;SDS011;6521;50.498;8.474;2023-11-21T08:21:04;15.40;;;8.20;;
12906;SDS011;6521;50.498;8.474;2023-11-21T08:23:35;12.67;;;7.90;;
12906;SDS011;6521;50.498;8.474;2023-11-21T08:26:06;21.10;;;8.57;;
12906;SDS011;6521;50.498;8.474;2023-11-21T08:28:36;31.13;;;9.77;;
12906;SDS011;6521;50.498;8.474;2023-11-21T08:31:07;16.70;;;8.43;;
12906;SDS011;6521;50.498;8.474;2023-11-21T08:33:38;19.13;;;8.63;;
12906;SDS011;6521;50.498;8.474;2023-11-21T08:36:09;20.87;;;8.00;;
12906;SDS011;6521;50.498;8.474;2023-11-21T08:38:41;17.87;;;6.90;;
12906;SDS011;6521;50.498;8.474;2023-11-21T08:41:11;8.47;;;6.50;;
12906;SDS011;6521;50.498;8.474;2023-11-21T08:43:42;12.50;;;6.07;;
12906;SDS011;6521;50.498;8.474;2023-11-21T08:46:13;14.13;;;6.50;;
12906;SDS011;6521;50.498;8.474;2023-11-21T08:48:44;23.80;;;7.10;;
12906;SDS011;6521;50.498;8.474;2023-11-21T08:51:15;11.10;;;7.07;;
12906;SDS011;6521;50.498;8.474;2023-11-21T08:53:46;11.37;;;6.80;;
12906;SDS011;6521;50.498;8.474;2023-11-21T08:56:18;11.13;;;5.20;;
12906;SDS011;6521;50.498;8.474;2023-11-21T08:58:50;9.57;;;6.03;;
12906;SDS011;6521;50.498;8.474;2023-11-21T09:01:21;13.40;;;6.07;;
12906;SDS011;6521;50.498;8.474;2023-11-21T09:03:51;16.30;;;6.57;;
12906;SDS011;6521;50.498;8.474;2023-11-21T09:06:22;27.63;;;6.63;;
12906;SDS011;6521;50.498;8.474;2023-11-21T09:08:53;12.27;;;6.57;;
12906;SDS011;6521;50.498;8.474;2023-11-21T09:11:23;15.87;;;6.87;;
12906;SDS011;6521;50.498;8.474;2023-11-21T09:13:55;24.90;;;7.83;;
12906;SDS011;6521;50.498;8.474;2023-11-21T09:16:28;15.10;;;6.37;;
12906;SDS011;6521;50.498;8.474;2023-11-21T09:18:59;14.83;;;5.73;;
12906;SDS011;6521;50.498;8.474;2023-11-21T09:21:30;15.33;;;6.93;;
12906;SDS011;6521;50.498;8.474;2023-11-21T09:24:00;26.23;;;8.03;;
12906;SDS011;6521;50.498;8.474;2023-11-21T09:26:31;11.13;;;6.40;;
12906;SDS011;6521;50.498;8.474;2023-11-21T09:29:01;10.10;;;5.63;;
12906;SDS011;6521;50.498;8.474;2023-11-21T09:31:35;14.97;;;7.37;;
12906;SDS011;6521;50.498;8.474;2023-11-21T09:34:06;11.50;;;6.13;;
12906;SDS011;6521;50.498;8.474;2023-11-21T09:36:37;14.80;;;6.80;;
12906;SDS011;6521;50.498;8.474;2023-11-21T09:39:09;15.17;;;9.43;;
12906;SDS011;6521;50.498;8.474;2023-11-21T09:41:49;11.67;;;9.27;;
12906;SDS011;6521;50.498;8.474;2023-11-21T09:44:35;11.57;;;8.40;;
12906;SDS011;6521;50.498;8.474;2023-11-21T09:47:14;16.73;;;7.27;;
12906;SDS011;6521;50.498;8.474;2023-11-21T09:49:47;18.47;;;8.13;;
12906;SDS011;6521;50.498;8.474;2023-11-21T09:52:24;9.50;;;6.67;;
12906;SDS011;6521;50.498;8.474;2023-11-21T09:54:56;12.73;;;7.60;;
12906;SDS011;6521;50.498;8.474;2023-11-21T09:57:30;9.53;;;6.80;;
12906;SDS011;6521;50.498;8.474;2023-11-21T10:00:01;17.97;;;7.43;;
12906;SDS011;6521;50.498;8.474;2023-11-21T10:02:35;84.87;;;9.77;;
12906;SDS011;6521;50.498;8.474;2023-11-21T10:05:08;12.57;;;7.00;;
12906;SDS011;6521;50.498;8.474;2023-11-21T10:07:42;18.83;;;7.23;;
12906;SDS011;6521;50.498;8.474;2023-11-21T10:10:15;16.53;;;6.87;;
12906;SDS011;6521;50.498;8.474;2023-11-21T10:12:53;12.37;;;6.50;;
12906;SDS011;6521;50.498;8.474;2023-11-21T10:15:26;11.73;;;7.07;;
12906;SDS011;6521;50.498;8.474;2023-11-21T10:17:57;10.20;;;6.37;;
12906;SDS011;6521;50.498;8.474;2023-11-21T10:20:28;19.73;;;6.97;;
12906;SDS011;6521;50.498;8.474;2023-11-21T10:23:00;14.97;;;5.77;;
12906;SDS011;6521;50.498;8.474;2023-11-21T10:25:34;8.47;;;6.00;;
12906;SDS011;6521;50.498;8.474;2023-11-21T10:28:07;26.80;;;7.03;;
12906;SDS011;6521;50.498;8.474;2023-11-21T10:30:38;15.33;;;6.57;;
12906;SDS011;6521;50.498;8.474;2023-11-21T10:33:09;21.47;;;7.57;;
12906;SDS011;6521;50.498;8.474;2023-11-21T10:35:43;12.83;;;6.77;;
12906;SDS011;6521;50.498;8.474;2023-11-21T10:38:21;16.37;;;8.40;;
12906;SDS011;6521;50.498;8.474;2023-11-21T10:40:54;10.43;;;6.30;;
12906;SDS011;6521;50.498;8.474;2023-11-21T10:43:25;11.07;;;6.47;;
12906;SDS011;6521;50.498;8.474;2023-11-21T10:45:57;15.53;;;7.27;;
12906;SDS011;6521;50.498;8.474;2023-11-21T10:48:30;11.40;;;7.43;;
12906;SDS011;6521;50.498;8.474;2023-11-21T10:51:06;58.47;;;11.83;;
12906;SDS011;6521;50.498;8.474;2023-11-21T10:53:38;12.47;;;6.47;;
12906;SDS011;6521;50.498;8.474;2023-11-21T10:56:11;18.27;;;6.47;;
12906;SDS011;6521;50.498;8.474;2023-11-21T10:58:51;20.00;;;5.50;;
12906;SDS011;6521;50.498;8.474;2023-11-21T11:01:22;15.97;;;5.67;;
12906;SDS011;6521;50.498;8.474;2023-11-21T11:03:56;12.80;;;5.80;;
12906;SDS011;6521;50.498;8.474;2023-11-21T11:06:27;11.20;;;5.40;;
12906;SDS011;6521;50.498;8.474;2023-11-21T11:08:59;8.50;;;4.10;;
12906;SDS011;6521;50.498;8.474;2023-11-21T11:11:32;8.67;;;4.60;;
12906;SDS011;6521;50.498;8.474;2023-11-21T11:14:03;10.07;;;4.60;;
12906;SDS011;6521;50.498;8.474;2023-11-21T11:16:34;16.27;;;4.80;;
12906;SDS011;6521;50.498;8.474;2023-11-21T11:19:05;14.67;;;5.00;;
12906;SDS011;6521;50.498;8.474;2023-11-21T11:21:46;12.70;;;5.07;;
12906;SDS011;6521;50.498;8.474;2023-11-21T11:38:08;27.03;;;5.93;;
12906;SDS011;6521;50.498;8.474;2023-11-21T11:40:41;30.17;;;5.57;;
12906;SDS011;6521;50.498;8.474;2023-11-21T11:43:22;6.00;;;4.67;;
12906;SDS011;6521;50.498;8.474;2023-11-21T11:45:56;9.27;;;4.17;;
12906;SDS011;6521;50.498;8.474;2023-11-21T11:48:27;16.30;;;5.80;;
12906;SDS011;6521;50.498;8.474;2023-11-21T11:51:02;11.23;;;5.47;;
12906;SDS011;6521;50.498;8.474;2023-11-21T11:53:39;7.90;;;5.27;;
12906;SDS011;6521;50.498;8.474;2023-11-21T11:56:20;13.47;;;5.13;;
12906;SDS011;6521;50.498;8.474;2023-11-21T11:58:56;6.87;;;4.73;;
12906;SDS011;6521;50.498;8.474;2023-11-21T12:01:29;10.17;;;4.90;;
12906;SDS011;6521;50.498;8.474;2023-11-21T12:06:47;7.50;;;4.93;;
12906;SDS011;6521;50.498;8.474;2023-11-21T12:09:21;8.27;;;5.23;;
12906;SDS011;6521;50.498;8.474;2023-11-21T12:11:53;7.97;;;5.27;;
12906;SDS011;6521;50.498;8.474;2023-11-21T12:14:25;11.47;;;4.90;;
12906;SDS011;6521;50.498;8.474;2023-11-21T12:16:56;31.23;;;6.87;;
12906;SDS011;6521;50.498;8.474;2023-11-21T12:19:27;37.13;;;7.33;;
12906;SDS011;6521;50.498;8.474;2023-11-21T12:21:57;10.20;;;5.27;;
12906;SDS011;6521;50.498;8.474;2023-11-21T12:24:29;5.17;;;4.40;;
12906;SDS011;6521;50.498;8.474;2023-11-21T12:27:00;8.57;;;4.67;;
12906;SDS011;6521;50.498;8.474;2023-11-21T12:29:31;7.90;;;3.97;;
12906;SDS011;6521;50.498;8.474;2023-11-21T12:32:03;10.27;;;4.53;;
12906;SDS011;6521;50.498;8.474;2023-11-21T12:34:34;5.60;;;4.60;;
12906;SDS011;6521;50.498;8.474;2023-11-21T12:37:05;10.90;;;6.07;;
12906;SDS011;6521;50.498;8.474;2023-11-21T12:39:36;7.23;;;4.50;;
12906;SDS011;6521;50.498;8.474;2023-11-21T12:42:06;7.77;;;5.03;;
12906;SDS011;6521;50.498;8.474;2023-11-21T12:44:38;8.23;;;5.30;;
12906;SDS011;6521;50.498;8.474;2023-11-21T12:47:11;11.20;;;4.80;;
12906;SDS011;6521;50.498;8.474;2023-11-21T12:49:47;8.67;;;5.20;;
12906;SDS011;6521;50.498;8.474;2023-11-21T12:52:18;19.67;;;6.10;;
12906;SDS011;6521;50.498;8.474;2023-11-21T12:54:49;13.40;;;6.63;;
12906;SDS011;6521;50.498;8.474;2023-11-21T12:57:20;8.67;;;6.00;;
12906;SDS011;6521;50.498;8.474;2023-11-21T12:59:51;9.27;;;5.47;;
12906;SDS011;6521;50.498;8.474;2023-11-21T13:02:27;8.77;;;5.67;;
12906;SDS011;6521;50.498;8.474;2023-11-21T13:05:00;11.87;;;6.47;;
12906;SDS011;6521;50.498;8.474;2023-11-21T13:07:42;9.70;;;5.63;;
12906;SDS011;6521;50.498;8.474;2023-11-21T13:10:17;11.83;;;5.90;;
12906;SDS011;6521;50.498;8.474;2023-11-21T13:12:48;10.20;;;6.17;;
12906;SDS011;6521;50.498;8.474;2023-11-21T13:15:18;17.63;;;6.90;;
12906;SDS011;6521;50.498;8.474;2023-11-21T13:17:49;28.50;;;7.70;;
12906;SDS011;6521;50.498;8.474;2023-11-21T13:20:21;24.07;;;7.83;;
12906;SDS011;6521;50.498;8.474;2023-11-21T13:22:52;9.90;;;7.00;;
12906;SDS011;6521;50.498;8.474;2023-11-21T13:25:25;17.27;;;7.50;;
12906;SDS011;6521;50.498;8.474;2023-11-21T13:27:58;23.37;;;6.87;;
12906;SDS011;6521;50.498;8.474;2023-11-21T13:30:32;16.90;;;7.07;;
12906;SDS011;6521;50.498;8.474;2023-11-21T13:33:06;9.67;;;6.63;;
12906;SDS011;6521;50.498;8.474;2023-11-21T13:35:38;21.63;;;6.63;;
12906;SDS011;6521;50.498;8.474;2023-11-21T13:38:12;12.27;;;6.30;;
12906;SDS011;6521;50.498;8.474;2023-11-21T13:40:47;9.53;;;6.40;;
12906;SDS011;6521;50.498;8.474;2023-11-21T13:43:20;13.20;;;6.70;;
12906;SDS011;6521;50.498;8.474;2023-11-21T13:45:54;9.13;;;6.77;;
12906;SDS011;6521;50.498;8.474;2023-11-21T13:48:37;18.07;;;7.47;;
12906;SDS011;6521;50.498;8.474;2023-11-21T13:51:19;12.30;;;8.43;;
12906;SDS011;6521;50.498;8.474;2023-11-21T13:53:50;13.27;;;7.63;;
12906;SDS011;6521;50.498;8.474;2023-11-21T13:56:22;24.33;;;8.70;;
12906;SDS011;6521;50.498;8.474;2023-11-21T13:58:54;18.10;;;11.23;;
12906;SDS011;6521;50.498;8.474;2023-11-21T14:01:26;12.13;;;9.13;;
12906;SDS011;6521;50.498;8.474;2023-11-21T14:04:00;12.43;;;7.97;;
12906;SDS011;6521;50.498;8.474;2023-11-21T14:06:39;9.77;;;6.80;;
12906;SDS011;6521;50.498;8.474;2023-11-21T14:09:20;11.50;;;6.60;;
12906;SDS011;6521;50.498;8.474;2023-11-21T14:12:06;7.43;;;5.97;;
12906;SDS011;6521;50.498;8.474;2023-11-21T14:14:38;8.70;;;6.17;;
12906;SDS011;6521;50.498;8.474;2023-11-21T14:17:09;8.83;;;5.80;;
12906;SDS011;6521;50.498;8.474;2023-11-21T14:19:41;8.77;;;4.97;;
12906;SDS011;6521;50.498;8.474;2023-11-21T14:22:13;7.33;;;5.53;;
12906;SDS011;6521;50.498;8.474;2023-11-21T14:24:44;8.07;;;5.30;;
12906;SDS011;6521;50.498;8.474;2023-11-21T14:27:17;11.63;;;5.77;;
12906;SDS011;6521;50.498;8.474;2023-11-21T14:29:47;18.73;;;6.20;;
12906;SDS011;6521;50.498;8.474;2023-11-21T14:32:19;10.07;;;6.10;;
12906;SDS011;6521;50.498;8.474;2023-11-21T14:34:50;12.30;;;6.43;;
12906;SDS011;6521;50.498;8.474;2023-11-21T14:37:21;29.60;;;7.53;;
12906;SDS011;6521;50.498;8.474;2023-11-21T14:39:52;11.40;;;6.60;;
12906;SDS011;6521;50.498;8.474;2023-11-21T14:42:22;11.40;;;6.50;;
12906;SDS011;6521;50.498;8.474;2023-11-21T14:44:55;16.47;;;7.30;;
12906;SDS011;6521;50.498;8.474;2023-11-21T14:47:30;26.47;;;7.80;;
12906;SDS011;6521;50.498;8.474;2023-11-21T14:50:02;18.63;;;8.13;;
12906;SDS011;6521;50.498;8.474;2023-11-21T14:52:53;21.67;;;8.77;;
12906;SDS011;6521;50.498;8.474;2023-11-21T14:55:29;19.67;;;8.07;;
12906;SDS011;6521;50.498;8.474;2023-11-21T14:58:09;13.67;;;7.73;;
12906;SDS011;6521;50.498;8.474;2023-11-21T15:00:43;27.07;;;14.33;;
12906;SDS011;6521;50.498;8.474;2023-11-21T15:03:15;22.10;;;14.07;;
12906;SDS011;6521;50.498;8.474;2023-11-21T15:06:07;53.07;;;17.53;;
12906;SDS011;6521;50.498;8.474;2023-11-21T15:08:57;12.73;;;9.93;;
12906;SDS011;6521;50.498;8.474;2023-11-21T15:11:37;19.17;;;9.93;;
12906;SDS011;6521;50.498;8.474;2023-11-21T15:14:09;16.80;;;9.03;;
12906;SDS011;6521;50.498;8.474;2023-11-21T15:16:41;18.47;;;9.60;;
12906;SDS011;6521;50.498;8.474;2023-11-21T15:19:16;25.13;;;8.73;;
12906;SDS011;6521;50.498;8.474;2023-11-21T15:21:48;38.40;;;10.60;;
12906;SDS011;6521;50.498;8.474;2023-11-21T15:24:19;28.60;;;8.60;;
12906;SDS011;6521;50.498;8.474;2023-11-21T15:26:50;17.17;;;7.43;;
12906;SDS011;6521;50.498;8.474;2023-11-21T15:29:21;9.10;;;7.27;;
12906;SDS011;6521;50.498;8.474;2023-11-21T15:31:52;11.10;;;7.43;;
12906;SDS011;6521;50.498;8.474;2023-11-21T15:34:26;20.73;;;7.80;;
12906;SDS011;6521;50.498;8.474;2023-11-21T15:36:59;11.77;;;7.63;;